Flight Track Log - Related Links

Times and Time Zones

All times are in EDT time to prevent confusion due to time zone crossing. See the SWA149 flight status page for this flight to view local times or setup timezone preferences in your user account.

Time Position Orientation Groundspeed Altitude Reporting Facility
EDT Latitude Longitude Course Direction KTS MPH feet Rate Location/Type
Thu 08:12:24 AM 39.1833 -76.7000 270° West 151 174 1,600  Level Potomac TRACON
Thu 08:13:18 AM 39.1833 -76.7667 270° West 200 230 3,800 2,444 Climbing Potomac TRACON
Thu 08:14:12 AM 39.2000 -76.8333 288° West 249 287 6,000 3,316 Climbing Potomac TRACON
Thu 08:15:12 AM 39.2167 -76.9333 282° West 271 312 10,100 3,500 Climbing Potomac TRACON
Thu 08:16:12 AM 39.2167 -77.0500 270° West 322 371 13,000 3,316 Climbing Potomac TRACON
Thu 08:17:06 AM 39.2000 -77.1500 258° West 352 405 16,400 3,263 Climbing Potomac TRACON
Thu 08:18:06 AM 39.1333 -77.2333 224° Southwest 360 414 19,200 2,900 Climbing Potomac TRACON
Thu 08:19:06 AM 39.0333 -77.3000 207° Southwest 377 434 22,200 1,900 Climbing Potomac TRACON
Thu 08:20:06 AM 38.9500 -77.3667 212° Southwest 395 455 23,000 400 Climbing Potomac TRACON
Thu 08:21:06 AM 38.8500 -77.4333 207° Southwest 390 449 23,000  Level Potomac TRACON
Thu 08:22:06 AM 38.7500 -77.4833 201° Southwest 384 442 23,000  Level Potomac TRACON
Thu 08:23:06 AM 38.6667 -77.5667 218° Southwest 377 434 23,000 129 Level Potomac TRACON
Thu 08:24:25 AM 38.5703 -77.6683 220° Southwest 368 423 23,300 1,243 Climbing Washington Center
Thu 08:25:26 AM 38.4914 -77.7589 222° Southwest 368 423 25,900 1,835 Climbing Washington Center
Thu 08:26:26 AM 38.4289 -77.8789 236° Southwest 387 445 27,000 712 Climbing Washington Center
Thu 08:27:24 AM 38.3661 -77.9961 236° Southwest 402 463 27,300 1,119 Climbing Washington Center
Thu 08:28:24 AM 38.3031 -78.1158 236° Southwest 413 475 29,200 1,884 Climbing Washington Center
Thu 08:29:25 AM 38.2378 -78.2433 237° Southwest 418 481 31,100 1,869 Climbing Washington Center
Thu 08:30:26 AM 38.1639 -78.3778 235° Southwest 423 487 33,000 1,714 Climbing Washington Center
Thu 08:31:24 AM 38.1067 -78.5025 240° Southwest 423 487 34,500 1,563 Climbing Washington Center
Thu 08:32:25 AM 38.0658 -78.6356 249° West 417 480 36,100 1,537 Climbing Washington Center
Thu 08:33:25 AM 38.0253 -78.7578 247° West 417 480 37,600 1,488 Climbing Washington Center
Thu 08:34:26 AM 37.9800 -78.8900 247° West 417 480 39,100 1,109 Climbing Washington Center
Thu 08:35:24 AM 37.9322 -79.0275 246° West 417 480 39,800 454 Climbing Washington Center
Thu 08:36:25 AM 37.8736 -79.1722 243° Southwest 422 486 40,000 101 Climbing Washington Center
Thu 08:37:23 AM 37.8114 -79.3008 239° Southwest 422 486 40,000  Level Washington Center
Thu 08:38:24 AM 37.7469 -79.4289 238° Southwest 433 498 40,000  Level Washington Center
Thu 08:39:25 AM 37.6803 -79.5542 236° Southwest 445 512 40,000  Level Washington Center
Thu 08:40:25 AM 37.6153 -79.6844 238° Southwest 450 518 40,000  Level Washington Center
Thu 08:41:26 AM 37.5483 -79.8117 236° Southwest 445 512 40,000  Level Washington Center
Thu 08:42:24 AM 37.4831 -79.9469 239° Southwest 452 520 40,000  Level Washington Center
Thu 08:44:09 AM 37.3672 -80.1692 237° Southwest 434 499 40,000  Level Atlanta Center
Thu 08:45:09 AM 37.3022 -80.2950 237° Southwest 434 499 40,000  Level Atlanta Center
Thu 08:46:09 AM 37.2431 -80.4072 237° Southwest 434 499 40,000  Level Atlanta Center
Thu 08:47:09 AM 37.1781 -80.5353 238° Southwest 434 499 40,000  Level Atlanta Center
Thu 08:48:09 AM 37.1128 -80.6606 237° Southwest 434 499 40,000  Level Atlanta Center
Thu 08:49:09 AM 37.0558 -80.7906 241° Southwest 434 499 40,000  Level Atlanta Center
Thu 08:50:09 AM 37.0036 -80.9433 247° West 434 499 40,000  Level Atlanta Center
Thu 08:51:09 AM 36.9567 -81.0775 246° West 428 493 40,000  Level Atlanta Center
Thu 08:52:09 AM 36.9058 -81.2144 245° Southwest 428 493 40,000  Level Atlanta Center
Thu 08:53:09 AM 36.8478 -81.3281 237° Southwest 435 501 40,000  Level Atlanta Center
Thu 08:54:09 AM 36.7819 -81.4547 237° Southwest 440 506 40,000  Level Atlanta Center
Thu 08:55:09 AM 36.7117 -81.5942 238° Southwest 435 501 40,000  Level Atlanta Center
Thu 08:56:09 AM 36.6433 -81.7206 236° Southwest 447 514 40,000  Level Atlanta Center
Thu 08:57:09 AM 36.5747 -81.8467 236° Southwest 442 509 40,000  Level Atlanta Center
Thu 08:58:09 AM 36.5061 -81.9750 236° Southwest 447 514 40,000  Level Atlanta Center
Thu 08:59:09 AM 36.4392 -82.1006 236° Southwest 447 514 40,000  Level Atlanta Center
Thu 09:00:09 AM 36.3703 -82.2261 236° Southwest 447 514 40,000  Level Atlanta Center
Thu 09:01:09 AM 36.3011 -82.3514 236° Southwest 447 514 40,000 -500 Level Atlanta Center
Thu 09:02:09 AM 36.2339 -82.4789 237° Southwest 447 514 39,000 -900 Descending Atlanta Center
Thu 09:03:09 AM 36.1667 -82.5983 235° Southwest 458 527 38,200 -500 Descending Atlanta Center
Thu 09:04:09 AM 36.0950 -82.7333 237° Southwest 471 542 38,000 -100 Descending Atlanta Center
Thu 09:05:09 AM 36.0233 -82.8628 236° Southwest 471 542 38,000  Level Atlanta Center
Thu 09:06:09 AM 35.9517 -82.9947 236° Southwest 471 542 38,000  Level Atlanta Center
Thu 09:07:09 AM 35.8797 -83.1239 236° Southwest 471 542 38,000  Level Atlanta Center
Thu 09:08:09 AM 35.8097 -83.2500 236° Southwest 471 542 38,000  Level Atlanta Center
Thu 09:09:09 AM 35.7394 -83.3786 236° Southwest 471 542 38,000  Level Atlanta Center
Thu 09:10:09 AM 35.6669 -83.5069 235° Southwest 466 536 38,000  Level Atlanta Center
Thu 09:11:09 AM 35.5986 -83.6300 236° Southwest 460 529 38,000  Level Atlanta Center
Thu 09:12:09 AM 35.5261 -83.7556 235° Southwest 455 524 38,000  Level Atlanta Center
Thu 09:13:09 AM 35.4533 -83.8833 235° Southwest 455 524 38,000  Level Atlanta Center
Thu 09:14:09 AM 35.3844 -84.0108 236° Southwest 450 518 38,000  Level Atlanta Center
Thu 09:15:09 AM 35.3114 -84.1356 234° Southwest 450 518 38,000  Level Atlanta Center
Thu 09:16:09 AM 35.2383 -84.2625 235° Southwest 450 518 38,000  Level Atlanta Center
Thu 09:17:09 AM 35.1669 -84.3869 235° Southwest 450 518 38,000  Level Atlanta Center
Thu 09:18:09 AM 35.0956 -84.5136 235° Southwest 450 518 38,000  Level Atlanta Center
Thu 09:19:09 AM 35.0219 -84.6400 235° Southwest 450 518 38,000  Level Atlanta Center
Thu 09:20:09 AM 34.9506 -84.7636 235° Southwest 450 518 38,000 -400 Level Atlanta Center
Thu 09:21:09 AM 34.8786 -84.8894 235° Southwest 450 518 37,200 -900 Descending Atlanta Center
Thu 09:22:09 AM 34.8047 -85.0153 234° Southwest 450 518 36,200 -1,100 Descending Atlanta Center
Thu 09:23:09 AM 34.7222 -85.1558 234° Southwest 450 518 35,000 -1,500 Descending Atlanta Center
Thu 09:24:09 AM 34.6478 -85.2836 235° Southwest 462 532 33,200 -2,500 Descending Atlanta Center
Thu 09:25:09 AM 34.5714 -85.4111 234° Southwest 473 544 30,000 -2,800 Descending Atlanta Center
Thu 09:26:09 AM 34.4969 -85.5358 234° Southwest 473 544 27,600 -2,250 Descending Atlanta Center
Thu 09:27:09 AM 34.4264 -85.6531 234° Southwest 460 529 25,500 -1,300 Descending Atlanta Center
Thu 09:28:09 AM 34.3667 -85.7525 234° Southwest 420 483 25,000 -1,100 Descending Atlanta Center
Thu 09:29:09 AM 34.3092 -85.8444 233° Southwest 372 428 23,300 -2,600 Descending Atlanta Center
Thu 09:30:09 AM 34.2492 -85.9486 235° Southwest 364 419 19,800 -2,600 Descending Atlanta Center
Thu 09:31:09 AM 34.1869 -86.0528 234° Southwest 375 432 18,100 -1,750 Descending Atlanta Center
Thu 09:32:09 AM 34.1289 -86.1492 234° Southwest 375 432 16,300 -1,900 Descending Atlanta Center
Thu 09:33:09 AM 34.0708 -86.2431 233° Southwest 370 426 14,300 -1,950 Descending Atlanta Center
Thu 09:34:09 AM 34.0128 -86.3344 233° Southwest 359 413 12,400 -1,700 Descending Atlanta Center
Thu 09:35:09 AM 33.9633 -86.4206 235° Southwest 342 394 10,900 -700 Descending Atlanta Center
Thu 09:36:09 AM 33.9114 -86.5069 234° Southwest 328 377 11,000 50 Climbing Atlanta Center
Thu 09:37:09 AM 33.8597 -86.5903 233° Southwest 323 372 11,000 -100 Level Atlanta Center
Thu 09:38:09 AM 33.8164 -86.6617 234° Southwest 312 359 10,800 -1,000 Descending Atlanta Center
Thu 09:39:09 AM 33.7667 -86.7400 233° Southwest 307 353 9,000 -1,750 Descending Atlanta Center
Thu 09:40:09 AM 33.7172 -86.8108 230° Southwest 301 346 7,300 -1,850 Descending Atlanta Center
Thu 09:41:09 AM 33.6450 -86.8611 210° Southwest 285 328 5,300 -1,450 Descending Atlanta Center
Thu 09:42:09 AM 33.5839 -86.8839 197° South 267 307 4,400 -1,000 Descending Atlanta Center
Thu 09:43:09 AM 33.5342 -86.8697 167° South 229 264 3,300 -1,300 Descending Atlanta Center
Thu 09:44:09 AM 33.5164 -86.8319 119° Southeast 144 166 1,800 -1,150 Descending Atlanta Center
Thu 09:45:09 AM 33.5444 -86.7881 53° Northeast 106 122 1,000 18,100 Descending Atlanta Center
Thu 09:46:09 AM 33.5325 -86.7553 114° Southeast 106 122 38,000 37,000 Climbing Atlanta Center

Login

Don't have an account? Register now (free) for customized features, flight alerts, and more!